OIZC

Details ICAO OIZC (ZBR)
Name CHAH BAHAR
Region Iran
Timezone Asia/Tehran (UTC+4.5)
Plans Departing 16
Arriving 19
Stats Elevation 43 ft / 13 m (AMSL)
Location 25.443349° 60.382115°
Runways 2
Magnetic Variation 1.602° E
Sunrise 2017-08-22 01:36:19 UTC / 2017-08-22 06:06:19 Local
Sunset 2017-08-22 14:29:26 UTC / 2017-08-22 18:59:26 Local
Advertisement - Login to hide

Runways

ID Width Length Bearing (true) Bearing (mag) Surface Threshold Offset Overrun Length
09L 150 ft / 46 m 12,496 ft / 3,809 m 90.91° 89.31° Asphalt 0 ft / 0 m 1,181 ft / 360 m
09R 150 ft / 46 m 9,829 ft / 2,996 m 90.93° 89.33° Asphalt 0 ft / 0 m 1,181 ft / 360 m
27L 150 ft / 46 m 9,829 ft / 2,996 m 270.94° 269.34° Asphalt 0 ft / 0 m 1,181 ft / 360 m
27R 150 ft / 46 m 12,496 ft / 3,809 m 270.93° 269.33° Asphalt 0 ft / 0 m 1,181 ft / 360 m

Map

Weather


0- 5 10 15 20 25 30 35+ Temperature / ° C

Clouds and Precipitation
Forecast for 2017-08-22 18:00 UTC. Updated an hour ago

Ground ~20,000 ft ~40,000 ft Winds

METAR

Not found

TAF

TAF OIZC 221110Z 2212/2318 16004MPS 6000 NSC TEMPO 2212/2216 24009MPS 4000 SA SCT035 TEMPO 2218/2303 3000 BR SCT025 TEMPO 2309/2316 24010MPS 4000 SA SCT035

Frequencies

Tower 121.70 MHz TWR
Approach 134.10 MHz APP
Tower 125.20 MHz TWR
Warning: Do not use this data for real-world aviation or navigation. No guarantee of current accuracy is given.